Time;durP1;ratioP1;P1;durP2;ratioP2;P2;SDS_P1;SDS_P2;PMS_P1;PMS_P2;Temp;Humidity;BMP_temperature;BMP_pressure;BME280_temperature;BME280_humidity;BME280_pressure;Samples;Min_cycle;Max_cycle;Signal;HPM_P1;HPM_P2
2024/01/31 00:00:07;;;;;;;1.45;0.47;;;;;;;;;;5099109;28;20076;-83
2024/01/31 00:02:33;;;;;;;1.42;0.60;;;;;;;;;;5097617;28;20048;-83
2024/01/31 00:04:59;;;;;;;4.63;1.23;;;;;;;;;;5098201;28;20036;-83
2024/01/31 00:07:25;;;;;;;2.08;0.57;;;;;;;;;;5097667;28;20096;-83
2024/01/31 00:09:51;;;;;;;1.80;0.70;;;;;;;;;;5093823;28;20108;-83
2024/01/31 00:12:17;;;;;;;1.48;0.65;;;;;;;;;;5080808;28;20048;-83
2024/01/31 00:14:43;;;;;;;1.65;0.60;;;;;;;;;;5096415;28;20043;-83
2024/01/31 00:17:09;;;;;;;2.65;0.40;;;;;;;;;;5096229;28;20063;-83
2024/01/31 00:19:35;;;;;;;1.15;0.60;;;;;;;;;;5096271;28;20451;-83
2024/01/31 00:22:01;;;;;;;2.25;0.52;;;;;;;;;;5095993;28;20053;-83
2024/01/31 00:24:27;;;;;;;2.95;0.20;;;;;;;;;;5097225;28;20047;-83
2024/01/31 00:26:54;;;;;;;5.03;0.50;;;;;;;;;;5096532;28;20032;-83
2024/01/31 00:29:20;;;;;;;2.65;0.73;;;;;;;;;;5096661;28;20115;-83
2024/01/31 00:31:46;;;;;;;0.90;0.43;;;;;;;;;;5094300;28;20064;-83
2024/01/31 00:34:12;;;;;;;6.60;1.40;;;;;;;;;;5096319;28;20044;-83
2024/01/31 00:36:38;;;;;;;4.85;0.88;;;;;;;;;;5095337;28;20096;-84
2024/01/31 00:39:05;;;;;;;6.47;1.00;;;;;;;;;;5092999;28;20404;-84
2024/01/31 00:41:31;;;;;;;2.85;0.52;;;;;;;;;;5124510;27;20044;-83
2024/01/31 00:43:57;;;;;;;2.50;0.60;;;;;;;;;;5090894;28;20051;-83
2024/01/31 00:46:23;;;;;;;3.90;1.00;;;;;;;;;;5087607;28;20036;-84
2024/01/31 00:48:49;;;;;;;3.53;0.28;;;;;;;;;;5093276;28;20032;-83
2024/01/31 00:51:15;;;;;;;1.85;0.30;;;;;;;;;;5093589;28;20139;-84
2024/01/31 00:53:41;;;;;;;4.70;0.60;;;;;;;;;;5094660;28;20135;-83
2024/01/31 00:56:09;;;;;;;3.92;0.95;;;;;;;;;;5093354;28;20147;-83
2024/01/31 00:58:34;;;;;;;1.02;0.60;;;;;;;;;;5092227;28;20085;-83
2024/01/31 01:01:01;;;;;;;3.47;1.30;;;;;;;;;;5093820;28;20036;-83
2024/01/31 01:03:27;;;;;;;4.97;0.73;;;;;;;;;;5092292;28;20050;-83
2024/01/31 01:05:53;;;;;;;4.60;0.65;;;;;;;;;;5097185;28;20040;-83
2024/01/31 01:08:19;;;;;;;0.45;0.30;;;;;;;;;;5095127;28;20179;-84
2024/01/31 01:10:45;;;;;;;0.75;0.50;;;;;;;;;;5093389;28;20059;-83
2024/01/31 01:13:11;;;;;;;2.85;0.82;;;;;;;;;;5090330;28;20051;-83
2024/01/31 01:15:37;;;;;;;2.33;0.60;;;;;;;;;;5093263;28;20040;-83
2024/01/31 01:18:03;;;;;;;2.90;0.60;;;;;;;;;;5096206;28;20377;-83
2024/01/31 01:20:29;;;;;;;1.33;0.50;;;;;;;;;;5096671;28;20032;-83
2024/01/31 01:22:55;;;;;;;4.07;0.68;;;;;;;;;;5098742;28;20048;-83
2024/01/31 01:25:22;;;;;;;2.20;0.60;;;;;;;;;;5100653;28;20072;-83
2024/01/31 01:27:51;;;;;;;3.80;0.75;;;;;;;;;;5106217;28;20049;-83
2024/01/31 01:30:20;;;;;;;2.42;0.55;;;;;;;;;;5103730;28;20032;-83
2024/01/31 01:32:46;;;;;;;0.65;0.45;;;;;;;;;;5106434;28;20040;-83
2024/01/31 01:35:13;;;;;;;1.17;0.60;;;;;;;;;;5113357;28;20066;-83
2024/01/31 01:37:39;;;;;;;2.70;0.60;;;;;;;;;;5113196;28;20490;-83
2024/01/31 01:40:06;;;;;;;2.13;0.30;;;;;;;;;;5100409;28;20492;-83
2024/01/31 01:42:32;;;;;;;1.08;0.55;;;;;;;;;;5092198;28;20073;-83
2024/01/31 01:44:58;;;;;;;1.95;0.70;;;;;;;;;;5097325;28;20417;-83
2024/01/31 01:47:24;;;;;;;1.75;0.43;;;;;;;;;;5094711;28;20098;-83
2024/01/31 01:49:50;;;;;;;1.25;0.30;;;;;;;;;;5097650;28;20028;-83
2024/01/31 01:52:16;;;;;;;0.63;0.30;;;;;;;;;;5093579;28;20115;-83
2024/01/31 01:54:43;;;;;;;1.00;0.30;;;;;;;;;;5093713;28;20043;-83
2024/01/31 01:57:10;;;;;;;3.40;0.47;;;;;;;;;;5095140;28;20404;-83
2024/01/31 01:59:36;;;;;;;1.05;0.50;;;;;;;;;;5100015;28;20040;-83
2024/01/31 02:02:02;;;;;;;1.98;0.38;;;;;;;;;;5096465;28;20047;-83
2024/01/31 02:04:31;;;;;;;2.13;0.65;;;;;;;;;;5095804;28;20036;-83
2024/01/31 02:06:57;;;;;;;2.42;0.60;;;;;;;;;;5098115;28;20043;-83
2024/01/31 02:09:23;;;;;;;0.30;0.10;;;;;;;;;;5097399;28;20091;-83
2024/01/31 02:11:49;;;;;;;2.00;0.77;;;;;;;;;;5098159;28;20040;-83
2024/01/31 02:14:15;;;;;;;1.15;0.47;;;;;;;;;;5101500;28;20044;-83
2024/01/31 02:16:44;;;;;;;5.82;0.98;;;;;;;;;;5096272;28;20032;-84
2024/01/31 02:19:10;;;;;;;2.15;0.50;;;;;;;;;;5094366;28;20040;-84
2024/01/31 02:21:37;;;;;;;2.58;0.50;;;;;;;;;;5090187;28;20062;-83
2024/01/31 02:24:04;;;;;;;0.65;0.20;;;;;;;;;;5093467;28;20055;-83
2024/01/31 02:26:30;;;;;;;2.50;0.52;;;;;;;;;;5095264;28;20044;-83
2024/01/31 02:28:56;;;;;;;1.33;0.55;;;;;;;;;;5091631;28;20048;-83
2024/01/31 02:31:22;;;;;;;2.10;0.50;;;;;;;;;;5078496;28;20055;-83
2024/01/31 02:33:48;;;;;;;3.58;0.50;;;;;;;;;;5082906;28;20035;-83
2024/01/31 02:36:14;;;;;;;1.58;0.30;;;;;;;;;;5096271;28;20046;-83
2024/01/31 02:38:40;;;;;;;1.17;0.30;;;;;;;;;;5099057;28;20420;-82
2024/01/31 02:41:07;;;;;;;3.28;0.55;;;;;;;;;;5095813;28;20038;-83
2024/01/31 02:43:33;;;;;;;2.00;0.30;;;;;;;;;;5089166;28;20036;-83
2024/01/31 02:45:59;;;;;;;1.85;0.30;;;;;;;;;;5089107;28;20091;-83
2024/01/31 02:48:25;;;;;;;1.77;0.40;;;;;;;;;;5093240;28;20028;-83
2024/01/31 02:50:51;;;;;;;1.58;0.32;;;;;;;;;;5093036;28;20047;-83
2024/01/31 02:53:17;;;;;;;2.35;0.30;;;;;;;;;;5093926;28;20043;-83
2024/01/31 02:55:43;;;;;;;2.58;0.95;;;;;;;;;;5095599;28;20123;-83
2024/01/31 02:58:11;;;;;;;2.58;0.50;;;;;;;;;;5093838;28;20054;-83
2024/01/31 03:00:37;;;;;;;0.90;0.47;;;;;;;;;;5078864;28;20484;-83
2024/01/31 03:03:03;;;;;;;1.55;0.25;;;;;;;;;;5097965;28;20079;-83
2024/01/31 03:05:29;;;;;;;2.30;0.52;;;;;;;;;;5099614;28;20040;-83
2024/01/31 03:07:55;;;;;;;0.55;0.13;;;;;;;;;;5098970;28;20062;-83
2024/01/31 03:10:21;;;;;;;3.03;0.50;;;;;;;;;;5101751;28;20055;-83
2024/01/31 03:12:47;;;;;;;0.88;0.50;;;;;;;;;;5102015;28;20051;-83
2024/01/31 03:15:13;;;;;;;1.67;0.45;;;;;;;;;;5100378;28;20031;-83
2024/01/31 03:17:39;;;;;;;0.95;0.28;;;;;;;;;;5083785;28;20108;-83
2024/01/31 03:20:06;;;;;;;5.53;0.40;;;;;;;;;;5095872;28;20074;-84
2024/01/31 03:22:34;;;;;;;0.32;0.28;;;;;;;;;;5100679;28;20480;-83
2024/01/31 03:25:00;;;;;;;0.55;0.35;;;;;;;;;;5100593;28;20059;-83
2024/01/31 03:27:26;;;;;;;0.80;0.35;;;;;;;;;;5100526;28;20465;-83
2024/01/31 03:29:52;;;;;;;0.25;0.25;;;;;;;;;;5096110;28;20048;-83
2024/01/31 03:32:18;;;;;;;2.80;0.55;;;;;;;;;;5103085;28;20123;-83
2024/01/31 03:34:44;;;;;;;1.20;0.50;;;;;;;;;;5101206;28;20040;-83
2024/01/31 03:37:10;;;;;;;1.98;0.28;;;;;;;;;;5101989;28;20079;-83
2024/01/31 03:39:36;;;;;;;2.80;0.60;;;;;;;;;;5099945;28;20040;-83
2024/01/31 03:42:02;;;;;;;2.13;0.50;;;;;;;;;;5096917;28;20060;-83
2024/01/31 03:44:28;;;;;;;0.70;0.30;;;;;;;;;;5102269;28;20052;-83
2024/01/31 03:46:54;;;;;;;1.63;0.50;;;;;;;;;;5106252;28;20097;-83
2024/01/31 03:49:20;;;;;;;1.48;0.40;;;;;;;;;;5094256;28;20492;-83
2024/01/31 03:51:46;;;;;;;1.45;0.30;;;;;;;;;;5102327;28;20039;-83
2024/01/31 03:54:13;;;;;;;2.20;0.45;;;;;;;;;;5102760;28;20044;-83
2024/01/31 03:56:39;;;;;;;2.33;0.40;;;;;;;;;;5100770;28;20041;-83
2024/01/31 03:59:05;;;;;;;2.05;0.52;;;;;;;;;;5099474;28;20054;-84
2024/01/31 04:01:31;;;;;;;2.33;0.40;;;;;;;;;;5102637;28;20075;-83
2024/01/31 04:03:57;;;;;;;2.75;0.55;;;;;;;;;;5102862;28;20044;-83
2024/01/31 04:06:23;;;;;;;2.25;0.38;;;;;;;;;;5097400;28;20035;-83
2024/01/31 04:08:49;;;;;;;1.35;0.38;;;;;;;;;;5102076;28;20028;-83
2024/01/31 04:11:15;;;;;;;0.30;0.17;;;;;;;;;;5105692;28;20067;-83
2024/01/31 04:13:43;;;;;;;0.40;0.15;;;;;;;;;;5108069;28;20095;-83
2024/01/31 04:16:09;;;;;;;3.85;0.70;;;;;;;;;;5112655;28;20053;-83
2024/01/31 04:18:35;;;;;;;0.38;0.15;;;;;;;;;;5108499;28;20508;-83
2024/01/31 04:21:01;;;;;;;1.92;0.38;;;;;;;;;;5105566;28;20051;-83
2024/01/31 04:23:27;;;;;;;1.35;0.30;;;;;;;;;;5093328;28;20464;-83
2024/01/31 04:25:53;;;;;;;1.67;0.30;;;;;;;;;;5094702;28;20499;-83
2024/01/31 04:28:20;;;;;;;0.47;0.20;;;;;;;;;;5099720;28;20036;-83
2024/01/31 04:30:46;;;;;;;0.20;0.20;;;;;;;;;;5098746;28;20036;-83
2024/01/31 04:33:12;;;;;;;0.50;0.20;;;;;;;;;;5099862;28;20051;-83
2024/01/31 04:35:38;;;;;;;1.63;0.20;;;;;;;;;;5095569;28;20039;-83
2024/01/31 04:38:04;;;;;;;1.73;0.40;;;;;;;;;;5093889;28;20048;-83
2024/01/31 04:40:30;;;;;;;2.03;0.30;;;;;;;;;;5078061;28;20413;-84
2024/01/31 04:42:56;;;;;;;0.32;0.30;;;;;;;;;;5099825;28;20051;-84
2024/01/31 04:45:22;;;;;;;3.33;0.35;;;;;;;;;;5099763;28;20135;-83
2024/01/31 04:47:48;;;;;;;1.48;0.20;;;;;;;;;;5099554;28;20051;-83
2024/01/31 04:50:14;;;;;;;2.17;0.40;;;;;;;;;;5100128;28;20058;-83
2024/01/31 04:52:40;;;;;;;0.28;0.28;;;;;;;;;;5098139;28;20043;-83
2024/01/31 04:55:06;;;;;;;0.50;0.20;;;;;;;;;;5096430;28;20400;-83
2024/01/31 04:57:32;;;;;;;1.27;0.30;;;;;;;;;;5097592;28;20381;-83
2024/01/31 04:59:58;;;;;;;0.00;0.00;;;;;;;;;;5095512;28;20038;-83
2024/01/31 05:02:24;;;;;;;0.38;0.17;;;;;;;;;;5098042;28;20028;-83
2024/01/31 05:04:50;;;;;;;0.90;0.28;;;;;;;;;;5095799;28;20045;-83
2024/01/31 05:07:16;;;;;;;2.83;0.57;;;;;;;;;;5094353;28;20036;-83
2024/01/31 05:09:42;;;;;;;1.73;0.30;;;;;;;;;;5103108;28;20060;-83
2024/01/31 05:12:08;;;;;;;1.55;0.45;;;;;;;;;;5093252;28;20040;-83
2024/01/31 05:14:34;;;;;;;0.50;0.20;;;;;;;;;;5096194;28;20381;-83
2024/01/31 05:17:00;;;;;;;0.70;0.28;;;;;;;;;;5100026;28;20131;-83
2024/01/31 05:19:27;;;;;;;2.38;0.40;;;;;;;;;;5095365;28;20066;-83
2024/01/31 05:21:53;;;;;;;0.10;0.10;;;;;;;;;;5100266;28;20051;-83
2024/01/31 05:24:19;;;;;;;0.50;0.13;;;;;;;;;;5093153;28;20089;-83
2024/01/31 05:26:48;;;;;;;1.17;0.20;;;;;;;;;;5092105;28;20408;-83
2024/01/31 05:29:15;;;;;;;2.25;0.65;;;;;;;;;;5094790;28;20460;-83
2024/01/31 05:31:41;;;;;;;1.55;0.30;;;;;;;;;;5097487;28;20028;-83
2024/01/31 05:34:07;;;;;;;2.50;0.57;;;;;;;;;;5092134;28;20044;-83
2024/01/31 05:36:33;;;;;;;1.65;0.40;;;;;;;;;;5096586;28;20093;-83
2024/01/31 05:38:59;;;;;;;1.70;0.40;;;;;;;;;;5095266;28;20431;-83
2024/01/31 05:41:25;;;;;;;1.52;0.80;;;;;;;;;;5095914;28;20127;-83
2024/01/31 05:43:51;;;;;;;0.85;0.60;;;;;;;;;;5091477;28;20128;-83
2024/01/31 05:46:18;;;;;;;1.35;0.20;;;;;;;;;;5092794;28;20538;-83
2024/01/31 05:48:46;;;;;;;2.38;0.52;;;;;;;;;;5088837;28;20105;-83
2024/01/31 05:51:12;;;;;;;2.85;0.52;;;;;;;;;;5096145;28;20035;-83
2024/01/31 05:53:38;;;;;;;0.50;0.30;;;;;;;;;;5094342;28;20040;-83
2024/01/31 05:56:04;;;;;;;1.17;0.57;;;;;;;;;;5094560;28;20127;-83
2024/01/31 05:58:30;;;;;;;2.15;0.47;;;;;;;;;;5094651;28;20130;-84
2024/01/31 06:00:57;;;;;;;1.58;0.57;;;;;;;;;;5099806;28;20522;-83
2024/01/31 06:03:24;;;;;;;1.38;0.75;;;;;;;;;;5098975;28;20059;-83
2024/01/31 06:05:51;;;;;;;1.02;0.20;;;;;;;;;;5093166;28;20065;-83
2024/01/31 06:08:18;;;;;;;1.85;0.38;;;;;;;;;;5096174;28;20036;-83
2024/01/31 06:10:44;;;;;;;1.90;0.50;;;;;;;;;;5091971;28;20052;-83
2024/01/31 06:13:10;;;;;;;2.28;0.60;;;;;;;;;;5096450;28;20040;-84
2024/01/31 06:15:36;;;;;;;1.42;0.50;;;;;;;;;;5092646;28;20466;-84
2024/01/31 06:18:02;;;;;;;1.98;0.50;;;;;;;;;;5095810;28;20075;-83
2024/01/31 06:20:28;;;;;;;2.33;0.60;;;;;;;;;;5093270;28;20085;-83
2024/01/31 06:22:54;;;;;;;2.75;0.80;;;;;;;;;;5089658;28;20109;-84
2024/01/31 06:25:20;;;;;;;3.05;0.65;;;;;;;;;;5089070;28;20516;-83
2024/01/31 06:27:47;;;;;;;1.88;0.88;;;;;;;;;;5093647;28;20190;-84
2024/01/31 06:30:19;;;;;;;1.05;0.38;;;;;;;;;;5091932;28;20153;-83
2024/01/31 06:32:47;;;;;;;1.20;0.68;;;;;;;;;;5070901;28;20149;-83
2024/01/31 06:35:13;;;;;;;1.70;0.70;;;;;;;;;;5089332;28;20040;-84
2024/01/31 06:37:39;;;;;;;2.22;1.05;;;;;;;;;;5089182;28;20054;-83
2024/01/31 06:40:08;;;;;;;0.88;0.55;;;;;;;;;;5086811;28;20488;-84
2024/01/31 06:42:34;;;;;;;3.40;0.65;;;;;;;;;;5095967;28;20065;-83
2024/01/31 06:45:00;;;;;;;2.53;0.90;;;;;;;;;;5095133;28;20036;-82
2024/01/31 06:47:26;;;;;;;4.80;0.80;;;;;;;;;;5094625;28;20032;-83
2024/01/31 06:49:52;;;;;;;1.52;0.90;;;;;;;;;;5096709;28;20105;-83
2024/01/31 06:52:20;;;;;;;5.05;0.88;;;;;;;;;;5099339;28;20484;-83
2024/01/31 06:54:46;;;;;;;2.00;1.15;;;;;;;;;;5101629;28;20047;-82
2024/01/31 06:57:12;;;;;;;1.42;0.80;;;;;;;;;;5081818;28;20047;-82
2024/01/31 06:59:38;;;;;;;2.00;1.02;;;;;;;;;;5079612;28;20043;-83
2024/01/31 07:02:04;;;;;;;2.05;1.08;;;;;;;;;;5100664;28;20040;-83
2024/01/31 07:04:30;;;;;;;0.38;0.38;;;;;;;;;;5079691;28;20079;-83
2024/01/31 07:06:56;;;;;;;0.80;0.63;;;;;;;;;;5098048;28;20043;-82
2024/01/31 07:09:22;;;;;;;4.55;0.98;;;;;;;;;;5097584;28;20036;-82
2024/01/31 07:11:48;;;;;;;2.08;0.95;;;;;;;;;;5099622;28;20451;-83
2024/01/31 07:14:14;;;;;;;6.03;1.40;;;;;;;;;;5082577;28;20036;-83
2024/01/31 07:16:40;;;;;;;5.00;1.70;;;;;;;;;;5099197;28;20043;-82
2024/01/31 07:19:06;;;;;;;3.38;1.17;;;;;;;;;;5081009;28;20043;-82
2024/01/31 07:21:33;;;;;;;3.03;0.93;;;;;;;;;;5102348;28;20036;-83
2024/01/31 07:23:59;;;;;;;4.05;1.80;;;;;;;;;;5100376;28;20062;-81
2024/01/31 07:26:29;;;;;;;2.33;1.27;;;;;;;;;;5109207;28;20043;-82
2024/01/31 07:28:55;;;;;;;2.47;1.30;;;;;;;;;;5103641;28;20050;-82
2024/01/31 07:31:21;;;;;;;4.00;1.58;;;;;;;;;;5084696;28;20067;-82
2024/01/31 07:33:47;;;;;;;4.68;1.52;;;;;;;;;;5096932;28;20044;-82
2024/01/31 07:36:13;;;;;;;1.30;1.00;;;;;;;;;;5099157;28;20036;-82
2024/01/31 07:38:43;;;;;;;3.50;1.92;;;;;;;;;;5097385;28;20042;-82
2024/01/31 07:41:10;;;;;;;2.92;1.73;;;;;;;;;;5097344;28;20051;-82
2024/01/31 07:43:36;;;;;;;3.40;1.75;;;;;;;;;;5092816;28;20040;-82
2024/01/31 07:46:03;;;;;;;1.52;1.23;;;;;;;;;;5076560;28;20100;-82
2024/01/31 07:48:30;;;;;;;3.08;1.70;;;;;;;;;;5095684;28;20040;-82
2024/01/31 07:50:56;;;;;;;3.80;2.38;;;;;;;;;;5098069;28;20582;-82
2024/01/31 07:53:22;;;;;;;3.38;1.70;;;;;;;;;;5096946;28;20046;-81
2024/01/31 07:55:48;;;;;;;3.58;1.60;;;;;;;;;;5089760;28;20054;-82
2024/01/31 07:58:14;;;;;;;4.63;1.95;;;;;;;;;;5095261;28;20036;-82
2024/01/31 08:00:40;;;;;;;2.53;2.30;;;;;;;;;;5095134;28;20104;-82
2024/01/31 08:03:09;;;;;;;4.18;1.65;;;;;;;;;;5093404;28;20127;-82
2024/01/31 08:05:35;;;;;;;3.08;1.65;;;;;;;;;;5093892;28;20031;-82
2024/01/31 08:08:01;;;;;;;3.22;1.80;;;;;;;;;;5081093;28;20036;-82
2024/01/31 08:10:27;;;;;;;5.20;2.20;;;;;;;;;;5095756;28;20100;-82
2024/01/31 08:12:53;;;;;;;3.72;2.10;;;;;;;;;;5096022;28;20109;-82
2024/01/31 08:15:19;;;;;;;4.68;2.35;;;;;;;;;;5093475;28;20036;-81
2024/01/31 08:17:46;;;;;;;3.13;2.22;;;;;;;;;;5090462;28;20070;-81
2024/01/31 08:20:12;;;;;;;4.05;2.75;;;;;;;;;;5093844;28;20043;-85
2024/01/31 08:22:38;;;;;;;4.80;3.05;;;;;;;;;;5095500;28;20507;-82
2024/01/31 08:25:04;;;;;;;6.22;2.70;;;;;;;;;;5096212;28;20036;-82
2024/01/31 08:27:31;;;;;;;2.72;2.25;;;;;;;;;;5097074;28;20036;-84
2024/01/31 08:29:57;;;;;;;3.13;2.22;;;;;;;;;;5097420;28;20047;-83
2024/01/31 08:32:23;;;;;;;4.20;2.45;;;;;;;;;;5098477;28;20031;-83
2024/01/31 08:34:49;;;;;;;4.15;2.53;;;;;;;;;;5095728;28;20047;-83
2024/01/31 08:37:15;;;;;;;3.25;2.25;;;;;;;;;;5091071;28;20043;-84
2024/01/31 08:39:42;;;;;;;5.55;2.65;;;;;;;;;;5097640;28;20039;-83
2024/01/31 08:42:08;;;;;;;3.90;2.58;;;;;;;;;;5099352;28;20099;-84
2024/01/31 08:44:34;;;;;;;3.90;2.28;;;;;;;;;;5096219;28;20036;-84
2024/01/31 08:47:00;;;;;;;6.38;3.50;;;;;;;;;;5096464;28;20042;-84
2024/01/31 08:49:26;;;;;;;5.05;2.58;;;;;;;;;;5095791;28;20115;-84
2024/01/31 08:51:53;;;;;;;5.38;2.85;;;;;;;;;;5094434;28;20075;-85
2024/01/31 08:54:20;;;;;;;3.28;2.20;;;;;;;;;;5090291;28;20040;-84
2024/01/31 08:56:46;;;;;;;3.92;3.00;;;;;;;;;;5095588;28;20044;-85
2024/01/31 08:59:12;;;;;;;5.00;2.50;;;;;;;;;;5093647;28;20068;-84
2024/01/31 09:01:43;;;;;;;2.97;1.95;;;;;;;;;;5092848;28;20044;-84
2024/01/31 09:04:09;;;;;;;5.18;2.38;;;;;;;;;;5077544;28;20047;-84
2024/01/31 09:06:35;;;;;;;4.32;1.92;;;;;;;;;;5096430;28;20036;-84
2024/01/31 09:09:04;;;;;;;4.68;2.33;;;;;;;;;;5094961;28;20040;-84
2024/01/31 09:11:29;;;;;;;4.43;2.67;;;;;;;;;;5090582;28;20073;-84
2024/01/31 09:13:57;;;;;;;7.47;2.67;;;;;;;;;;5095345;28;20723;-83
2024/01/31 09:16:23;;;;;;;2.60;2.25;;;;;;;;;;5095382;28;20075;-84
2024/01/31 09:18:49;;;;;;;3.90;1.83;;;;;;;;;;5095690;28;20035;-83
2024/01/31 09:21:22;;;;;;;3.80;1.80;;;;;;;;;;5097157;28;20496;-84
2024/01/31 09:23:49;;;;;;;3.33;1.73;;;;;;;;;;5097369;28;20040;-84
2024/01/31 09:26:15;;;;;;;3.97;2.03;;;;;;;;;;5101640;28;20185;-83
2024/01/31 09:28:41;;;;;;;3.33;1.83;;;;;;;;;;5098893;28;20392;-84
2024/01/31 09:31:07;;;;;;;2.72;2.10;;;;;;;;;;5098081;28;20036;-83
2024/01/31 09:33:33;;;;;;;2.15;1.73;;;;;;;;;;5096743;28;20459;-84
2024/01/31 09:35:59;;;;;;;3.22;2.05;;;;;;;;;;5098936;28;20027;-83
2024/01/31 09:38:26;;;;;;;4.55;3.03;;;;;;;;;;5094767;28;20047;-84
2024/01/31 09:40:52;;;;;;;2.40;1.80;;;;;;;;;;5100681;28;20047;-84
2024/01/31 09:43:21;;;;;;;3.47;2.47;;;;;;;;;;5105458;28;20040;-83
2024/01/31 09:45:48;;;;;;;2.42;1.95;;;;;;;;;;5103179;28;20105;-84
2024/01/31 09:48:14;;;;;;;4.50;2.55;;;;;;;;;;5101413;28;20032;-84
2024/01/31 09:50:41;;;;;;;3.15;2.25;;;;;;;;;;5083914;28;20028;-84
2024/01/31 09:53:08;;;;;;;2.58;1.88;;;;;;;;;;5101557;28;20093;-84
2024/01/31 09:55:35;;;;;;;3.63;2.30;;;;;;;;;;5102951;28;20063;-84
2024/01/31 09:58:02;;;;;;;2.70;2.17;;;;;;;;;;5100984;28;20044;-84
2024/01/31 10:00:28;;;;;;;5.30;2.47;;;;;;;;;;5100438;28;20063;-84
2024/01/31 10:02:55;;;;;;;2.78;2.20;;;;;;;;;;5101317;28;20156;-83
2024/01/31 10:05:21;;;;;;;4.85;2.17;;;;;;;;;;5102773;28;20039;-83
2024/01/31 10:07:47;;;;;;;5.38;2.70;;;;;;;;;;5099615;28;20040;-83
2024/01/31 10:10:13;;;;;;;4.10;2.58;;;;;;;;;;5099625;28;20059;-83
2024/01/31 10:12:39;;;;;;;3.90;2.45;;;;;;;;;;5081327;28;20040;-86
2024/01/31 10:15:08;;;;;;;3.53;2.05;;;;;;;;;;5095224;28;20043;-82
2024/01/31 10:17:35;;;;;;;2.97;2.00;;;;;;;;;;5091865;28;20036;-83
2024/01/31 10:20:06;;;;;;;3.45;2.30;;;;;;;;;;5095737;28;20036;-82
2024/01/31 10:22:32;;;;;;;4.05;2.20;;;;;;;;;;5086599;28;20036;-83
2024/01/31 10:24:58;;;;;;;5.03;2.53;;;;;;;;;;5094290;28;20039;-82
2024/01/31 10:27:24;;;;;;;4.03;2.35;;;;;;;;;;5096904;28;20039;-82
2024/01/31 10:29:53;;;;;;;5.28;2.88;;;;;;;;;;5078057;28;20043;-82
2024/01/31 10:32:20;;;;;;;5.25;2.95;;;;;;;;;;5097367;28;20039;-83
2024/01/31 10:34:47;;;;;;;4.70;3.15;;;;;;;;;;5099186;28;20048;-83
2024/01/31 10:37:13;;;;;;;3.33;3.03;;;;;;;;;;5098249;28;20435;-82
2024/01/31 10:39:40;;;;;;;5.05;2.97;;;;;;;;;;5098627;28;20036;-82
2024/01/31 10:42:06;;;;;;;3.10;2.60;;;;;;;;;;5106071;28;20071;-82
2024/01/31 10:44:37;;;;;;;5.38;3.17;;;;;;;;;;5103842;28;20036;-83
2024/01/31 10:47:04;;;;;;;4.38;2.75;;;;;;;;;;5104000;28;20036;-83
2024/01/31 10:49:30;;;;;;;5.50;3.72;;;;;;;;;;5102844;28;20028;-83
2024/01/31 10:51:57;;;;;;;4.93;3.25;;;;;;;;;;5100896;28;20079;-83
2024/01/31 10:54:26;;;;;;;4.55;3.17;;;;;;;;;;5093266;28;20036;-82
2024/01/31 10:56:52;;;;;;;4.28;2.78;;;;;;;;;;5095459;28;20047;-82
2024/01/31 10:59:18;;;;;;;4.38;3.97;;;;;;;;;;5077679;28;20157;-82
2024/01/31 11:01:58;;;;;;;3.60;2.75;;;;;;;;;;5094202;28;20048;-82
2024/01/31 11:04:24;;;;;;;5.13;3.38;;;;;;;;;;5093337;28;20044;-83
2024/01/31 11:06:51;;;;;;;4.57;3.40;;;;;;;;;;5095071;28;20074;-83
2024/01/31 11:09:18;;;;;;;4.30;3.20;;;;;;;;;;5096027;28;20065;-83
2024/01/31 11:11:44;;;;;;;5.07;3.22;;;;;;;;;;5090049;28;20048;-82
2024/01/31 11:14:12;;;;;;;5.32;3.58;;;;;;;;;;5092866;28;20041;-87
2024/01/31 11:16:38;;;;;;;4.57;3.63;;;;;;;;;;5091150;28;20044;-85
2024/01/31 11:19:05;;;;;;;6.57;2.95;;;;;;;;;;5091722;28;20040;-83
2024/01/31 11:21:40;;;;;;;5.10;3.50;;;;;;;;;;5091510;28;20068;-82
2024/01/31 11:24:06;;;;;;;4.43;3.33;;;;;;;;;;5094846;28;20047;-82
2024/01/31 11:26:39;;;;;;;4.97;3.15;;;;;;;;;;5093001;28;20052;-83
2024/01/31 11:29:05;;;;;;;5.72;4.38;;;;;;;;;;5089907;28;20044;-82
2024/01/31 11:31:31;;;;;;;4.57;3.75;;;;;;;;;;5091763;28;20036;-81
2024/01/31 11:33:59;;;;;;;6.03;4.57;;;;;;;;;;5097659;28;20044;-82
2024/01/31 11:36:25;;;;;;;6.18;4.65;;;;;;;;;;5100854;28;20519;-83
2024/01/31 11:38:51;;;;;;;5.35;4.85;;;;;;;;;;5091975;28;20071;-82
2024/01/31 11:41:17;;;;;;;6.75;4.22;;;;;;;;;;5095801;28;20032;-82
2024/01/31 11:43:43;;;;;;;6.28;4.03;;;;;;;;;;5092974;28;20064;-83
2024/01/31 11:46:09;;;;;;;6.63;5.13;;;;;;;;;;5096321;28;20088;-82
2024/01/31 11:48:35;;;;;;;6.18;4.68;;;;;;;;;;5096977;28;20043;-82
2024/01/31 11:51:03;;;;;;;5.38;3.95;;;;;;;;;;5097316;28;20515;-83
2024/01/31 11:53:29;;;;;;;5.35;4.18;;;;;;;;;;5093783;28;20048;-83
2024/01/31 11:55:55;;;;;;;5.07;3.45;;;;;;;;;;5096741;28;20040;-82
2024/01/31 11:58:21;;;;;;;7.25;4.03;;;;;;;;;;5095551;28;20040;-83
2024/01/31 12:00:48;;;;;;;5.40;3.38;;;;;;;;;;5095684;28;21011;-83
2024/01/31 12:03:19;;;;;;;4.55;3.70;;;;;;;;;;5123224;27;20493;-84
2024/01/31 12:05:54;;;;;;;4.95;3.38;;;;;;;;;;5094436;28;20055;-82
2024/01/31 12:08:26;;;;;;;4.50;3.85;;;;;;;;;;5096493;28;20036;-83
2024/01/31 12:10:52;;;;;;;6.50;3.97;;;;;;;;;;5096167;28;20139;-83
2024/01/31 12:13:18;;;;;;;3.97;3.22;;;;;;;;;;5096418;28;20044;-84
2024/01/31 12:15:46;;;;;;;5.25;4.03;;;;;;;;;;5094684;28;20137;-83
2024/01/31 12:18:13;;;;;;;4.50;3.42;;;;;;;;;;5097014;28;20406;-82
2024/01/31 12:20:39;;;;;;;3.45;2.78;;;;;;;;;;5091372;28;20438;-82
2024/01/31 12:23:05;;;;;;;7.25;3.95;;;;;;;;;;5096744;28;20044;-82
2024/01/31 12:25:31;;;;;;;5.95;3.75;;;;;;;;;;5094155;28;20476;-82
2024/01/31 12:27:57;;;;;;;4.18;3.08;;;;;;;;;;5087499;28;20036;-83
2024/01/31 12:30:23;;;;;;;6.68;3.90;;;;;;;;;;5090281;28;20051;-82
2024/01/31 12:32:49;;;;;;;5.10;3.65;;;;;;;;;;5092227;28;20130;-82
2024/01/31 12:35:17;;;;;;;6.15;4.95;;;;;;;;;;5091969;28;20072;-83
2024/01/31 12:37:44;;;;;;;6.38;3.80;;;;;;;;;;5087165;28;20032;-82
2024/01/31 12:40:11;;;;;;;6.55;4.10;;;;;;;;;;5095708;28;20123;-82
2024/01/31 12:42:37;;;;;;;7.50;4.85;;;;;;;;;;5091087;28;20039;-82
2024/01/31 12:45:03;;;;;;;6.63;4.43;;;;;;;;;;5096522;28;20035;-82
2024/01/31 12:47:29;;;;;;;5.57;4.47;;;;;;;;;;5095376;28;20051;-82
2024/01/31 12:49:55;;;;;;;6.47;4.82;;;;;;;;;;5091501;28;20036;-82
2024/01/31 12:52:24;;;;;;;9.40;4.95;;;;;;;;;;5095849;28;20075;-82
2024/01/31 12:54:50;;;;;;;8.35;5.05;;;;;;;;;;5092034;28;20043;-82
2024/01/31 12:57:17;;;;;;;8.05;5.60;;;;;;;;;;5090005;28;20046;-82
2024/01/31 12:59:46;;;;;;;9.05;6.22;;;;;;;;;;5087847;28;20036;-82
2024/01/31 13:02:12;;;;;;;7.35;5.78;;;;;;;;;;5118855;27;20048;-82
2024/01/31 13:04:38;;;;;;;8.60;5.15;;;;;;;;;;5092963;28;20091;-81
2024/01/31 13:07:04;;;;;;;5.65;3.67;;;;;;;;;;5093638;28;20098;-82
2024/01/31 13:09:30;;;;;;;9.52;7.07;;;;;;;;;;5093519;28;20066;-82
2024/01/31 13:11:56;;;;;;;8.65;5.78;;;;;;;;;;5095488;28;20048;-82
2024/01/31 13:14:22;;;;;;;9.00;6.38;;;;;;;;;;5092245;28;20040;-83
2024/01/31 13:16:48;;;;;;;8.38;5.30;;;;;;;;;;5092589;28;20135;-82
2024/01/31 13:19:14;;;;;;;5.45;4.00;;;;;;;;;;5092754;28;20162;-82
2024/01/31 13:21:44;;;;;;;8.13;5.28;;;;;;;;;;5090144;28;20044;-82
2024/01/31 13:24:10;;;;;;;7.18;4.80;;;;;;;;;;5090784;28;20056;-82
2024/01/31 13:26:36;;;;;;;3.85;2.55;;;;;;;;;;5089437;28;20514;-83
2024/01/31 13:29:02;;;;;;;7.15;4.70;;;;;;;;;;5094174;28;20031;-83
2024/01/31 13:31:28;;;;;;;4.85;4.00;;;;;;;;;;5092014;28;20036;-82
2024/01/31 13:33:54;;;;;;;6.28;4.85;;;;;;;;;;5092880;28;20097;-82
2024/01/31 13:36:20;;;;;;;5.40;4.03;;;;;;;;;;5091071;28;20048;-84
2024/01/31 13:38:48;;;;;;;6.47;4.65;;;;;;;;;;5093018;28;20431;-83
2024/01/31 13:41:17;;;;;;;4.68;4.05;;;;;;;;;;5089851;28;20059;-82
2024/01/31 13:43:44;;;;;;;6.57;5.28;;;;;;;;;;5089363;28;20123;-83
2024/01/31 13:46:10;;;;;;;5.70;4.40;;;;;;;;;;5093554;28;20047;-82
2024/01/31 13:48:36;;;;;;;6.90;4.13;;;;;;;;;;5094542;28;20039;-83
2024/01/31 13:51:04;;;;;;;8.02;5.57;;;;;;;;;;5092765;28;20040;-83
2024/01/31 13:53:32;;;;;;;7.28;4.82;;;;;;;;;;5089996;28;20040;-82
2024/01/31 13:55:58;;;;;;;7.60;5.50;;;;;;;;;;5091845;28;20071;-82
2024/01/31 13:58:24;;;;;;;6.63;4.75;;;;;;;;;;5093311;28;20396;-83
2024/01/31 14:00:50;;;;;;;8.13;4.80;;;;;;;;;;5092495;28;20043;-83
2024/01/31 14:03:16;;;;;;;9.77;6.50;;;;;;;;;;5096489;28;20399;-83
2024/01/31 14:05:42;;;;;;;4.60;3.20;;;;;;;;;;5096358;28;20085;-83
2024/01/31 14:08:09;;;;;;;9.48;7.47;;;;;;;;;;5096941;28;20396;-83
2024/01/31 14:10:35;;;;;;;12.77;7.57;;;;;;;;;;5097551;28;20154;-83
2024/01/31 14:13:01;;;;;;;7.45;4.68;;;;;;;;;;5085043;28;20044;-83
2024/01/31 14:15:27;;;;;;;6.68;4.53;;;;;;;;;;5090058;28;20047;-82
2024/01/31 14:17:53;;;;;;;8.15;5.65;;;;;;;;;;5090905;28;20032;-83
2024/01/31 14:20:19;;;;;;;8.27;5.00;;;;;;;;;;5089416;28;20039;-83
2024/01/31 14:22:45;;;;;;;9.18;6.88;;;;;;;;;;5087531;28;20044;-83
2024/01/31 14:25:11;;;;;;;7.55;5.25;;;;;;;;;;5092851;28;20450;-83
2024/01/31 14:27:37;;;;;;;9.52;5.60;;;;;;;;;;5091791;28;20031;-83
2024/01/31 14:30:03;;;;;;;11.10;7.78;;;;;;;;;;5088927;28;20404;-84
2024/01/31 14:32:29;;;;;;;11.60;7.70;;;;;;;;;;5088216;28;20132;-83
2024/01/31 14:34:55;;;;;;;11.77;8.48;;;;;;;;;;5091392;28;20040;-84
2024/01/31 14:37:21;;;;;;;11.18;7.65;;;;;;;;;;5089861;28;20040;-83